Main page
METAR-TAF:

METAR-TAF

Airports :

Mitiga International Airport

Tripoli, Libya

latitude: 32-54N, longitude: 13-17E, elevation: 11 m

Current weather observation

The report was made 59 minutes ago, at 16:50 UTC
Wind 6 kt from the East
Temperature 21°C
Humidity 60%
Pressure 1019 hPa
Visibility: 7000 m

METAR: HLLM 151650Z 10006KT 7000 NSC 21/13 Q1019

Time: 19:49 (17:49 UTC)

Forecast

The report was made 6 hours and 49 minutes ago, at 11:00 UTC
Forecast valid from 15 at 12 UTC to 16 at 12 UTC
Wind 10 kt from the Southeast
Visibility 10 km or more
Few clouds at a height of 2500 ft

TAF: HLLM 151100Z 1512/1612 VRB02KT 9999 FEW025 BECMG1520/1522 14010KT

Weather observations and forecasts of more than 4000 airports (METAR and TAF reports).

The available stations are represented by yellow and red dots on the map.

Hover mouse over dot to see the name of the station.

Then click to see weather observations and forecasts.

To change the map : click on the green buttons with a black cross to zoom in, on the green button with a dash to zoom out, or on the green arrows for adjacent maps.


METAR-TAF: